Flight Track Log - Related Links

Times and Time Zones

All times are in EDT time to prevent confusion due to time zone crossing. See the N774LA flight status page for this flight to view local times or setup timezone preferences in your user account.

Time Position Orientation Groundspeed Altitude Reporting Facility
EDT Latitude Longitude Course Direction KTS MPH feet Rate Location/Type
Fri 07:25:00 AM -32.5206 -70.9663 350° North  Level Estimated
Fri 07:26:00 AM -32.3817 -70.9947 350° North  Level Estimated
Fri 07:27:00 AM -32.2428 -71.0230 350° North  Level Estimated
Fri 07:28:00 AM -32.1040 -71.0512 350° North  Level Estimated
Fri 07:29:00 AM -31.9651 -71.0794 350° North  Level Estimated
Fri 07:30:00 AM -31.8262 -71.1074 350° North  Level Estimated
Fri 07:31:00 AM -31.6873 -71.1354 350° North  Level Estimated
Fri 07:32:00 AM -31.5484 -71.1633 350° North  Level Estimated
Fri 07:33:00 AM -31.4095 -71.1911 350° North  Level Estimated
Fri 07:34:00 AM -31.2705 -71.2188 350° North  Level Estimated
Fri 07:35:00 AM -31.1316 -71.2465 350° North  Level Estimated
Fri 07:36:00 AM -30.9927 -71.2740 350° North  Level Estimated
Fri 07:37:00 AM -30.8538 -71.3015 350° North  Level Estimated
Fri 07:38:00 AM -30.7148 -71.3289 350° North  Level Estimated
Fri 07:39:00 AM -30.5759 -71.3562 350° North  Level Estimated
Fri 07:40:00 AM -30.4369 -71.3835 350° North  Level Estimated
Fri 07:41:00 AM -30.2986 -71.4146 349° North  Level FlightAware Approximate
Fri 07:42:00 AM -30.1602 -71.4457 349° North  Level FlightAware Approximate
Fri 07:43:00 AM -30.0219 -71.4767 349° North  Level FlightAware Approximate
Fri 07:44:00 AM -29.8835 -71.5076 349° North  Level FlightAware Approximate
Fri 07:45:00 AM -29.7451 -71.5384 349° North  Level FlightAware Approximate
Fri 07:46:00 AM -29.6068 -71.5691 349° North  Level FlightAware Approximate
Fri 07:47:00 AM -29.4684 -71.5998 349° North  Level FlightAware Approximate
Fri 07:48:00 AM -29.3300 -71.6303 349° North  Level FlightAware Approximate
Fri 07:49:00 AM -29.1916 -71.6608 349° North  Level FlightAware Approximate
Fri 07:50:00 AM -29.0532 -71.6912 349° North  Level FlightAware Approximate
Fri 07:51:00 AM -28.9147 -71.7215 349° North  Level FlightAware Approximate
Fri 07:52:00 AM -28.7763 -71.7518 349° North  Level FlightAware Approximate
Fri 07:53:00 AM -28.6379 -71.7820 349° North  Level FlightAware Approximate
Fri 07:54:00 AM -28.4995 -71.8120 349° North  Level FlightAware Approximate
Fri 07:55:00 AM -28.3610 -71.8420 349° North  Level FlightAware Approximate
Fri 07:56:00 AM -28.2226 -71.8719 349° North  Level FlightAware Approximate
Fri 07:57:00 AM -28.0841 -71.9018 349° North  Level FlightAware Approximate
Fri 07:58:00 AM -27.9457 -71.9316 349° North  Level FlightAware Approximate
Fri 07:59:00 AM -27.8072 -71.9613 349° North  Level FlightAware Approximate
Fri 07:59:29 AM 25.7900 -80.2840 349° North 156 180  Level FlightAware ADS-B
Fri 07:59:50 AM 25.7960 -80.2950 301° West 98 113  Level FlightAware ADS-B
Fri 08:02:00 AM 25.7970 -80.2940 42° Northeast 23 26  Level FlightAware ADS-B
Fri 08:02:27 AM 25.7950 -80.2920 138° Southeast 25 29  Level FlightAware ADS-B
Fri 08:03:02 AM 25.7940 -80.2890 110° East 29 33  Level FlightAware ADS-B
Fri 08:03:22 AM 25.7920 -80.2890 180° South 17 20  Level FlightAware ADS-B
Fri 08:03:56 AM 25.7900 -80.2890 180° South 27 31  Level FlightAware ADS-B
Fri 08:04:16 AM 25.7890 -80.2890 180° South 29 33  Level FlightAware ADS-B
Fri 08:04:30 AM 25.7890 -80.2900 270° West 15 17  Level FlightAware ADS-B
Fri 08:04:55 AM 25.7890 -80.2930 270° West 19 22  Level FlightAware ADS-B

Login

Don't have an account? Register now (free) for customized features, flight alerts, and more!